Hazardville, Connecticut
Current Conditions -  °F | °C
As of 10:51 PM on Thursday 18 Dec 2014 (Local Time) from KBDL Reporting Station
Overcast Overcast  
Wind Chill: -2°   Ceiling: 2700
Heat Index:   Visibility: 10mi
Dew Point: -4°   Wind: 12mph
Humidity: 64%   Direction: 310°NW
Pressure: 29.92"   Gusts: NA
Location:  41.9843°N, 72.5534°W
Report Text: KBDL 190351Z 31010KT 10SM OVC027 02/M04 A2992 RMK AO2 SLP132 T00221039
Loading
Personal Weather Stations






























Interactive Weather Map New forecast layout! Learn more

10-Day Weather Forecast

Advertisements
Track Severe Weather on mobile